Georg Jacob — A8XG5 — position and weather

sailwx.info

Track history (hours):
 
Tides and Currents Weather Stations Pressure Air Temp Water Temp Dewpoint Dewpoint Depression Visibility Wind Speed Wind Dir Waves Ship Positions

Georg Jacob

Last reported at 2016-Jul-21 06:06 UTC. Time now 2016-Jul-30 16:57 UTC.
Position N 01°27' E 103°53'.
Warning: this ship's position is 9 days out of date.

Length 229 m; draft 7.2 m.

Type: Tanker. MMSI: 636092136.

Date/timePositionNaut miles runAvg speedWind from/ knotsBaromVisibWave heightAir tempDewpointWater temp
2016-Jul-21 06:06N 01°27' E 103°53'0 0.6
2016-Jul-21 05:30N 01°27' E 103°52'5 5.5
2016-Jul-21 04:31N 01°24' E 103°57'1010.6
2016-Jul-21 03:33N 01°19' E 104°06'4 0.8
2016-Jul-20 22:23N 01°18' E 104°10'4 5.3
2016-Jul-20 21:33N 01°15' E 104°06'1010.0
2016-Jul-20 20:34N 01°13' E 103°57'3 2.5
2016-Jul-20 19:26N 01°16' E 103°55'0 0.1
2016-Jul-20 18:14N 01°16' E 103°55'0 0.1
2016-Jul-20 17:32N 01°16' E 103°55'0 0.0
2016-Jul-20 16:32N 01°16' E 103°55'0 0.1
2016-Jul-20 15:20N 01°16' E 103°55'0 0.1
2016-Jul-20 14:26N 01°16' E 103°55'0 0.0
2016-Jul-20 13:29N 01°16' E 103°55'0 0.0
2016-Jul-20 12:32N 01°16' E 103°55'0 0.0
2016-Jul-20 11:32N 01°16' E 103°55'0 0.1
2016-Jul-20 10:26N 01°16' E 103°55'0 0.1
2016-Jul-20 09:05N 01°16' E 103°55'0 0.1
2016-Jul-20 08:32N 01°16' E 103°55'0 0.0
2016-Jul-20 07:20N 01°16' E 103°55'0 0.0
2016-Jul-20 06:29N 01°16' E 103°55'0 0.0
2016-Jul-20 05:32N 01°16' E 103°55'0 0.1
2016-Jul-20 04:32N 01°16' E 103°55'0 0.1
2016-Jul-20 03:26N 01°16' E 103°55'0 0.0
2016-Jul-20 02:32N 01°16' E 103°55'0 0.2
2016-Jul-20 01:26N 01°16' E 103°55'0 0.1
2016-Jul-20 00:32N 01°16' E 103°55'1 1.5
2016-Jul-19 23:33N 01°16' E 103°57'4 4.4
2016-Jul-19 22:33N 01°16' E 104°01'9 8.8
2016-Jul-19 21:31N 01°17' E 104°10'  
2016-Jul-14 03:29N 22°28' E 119°51'1010.7
2016-Jul-14 02:33N 22°31' E 120°01'1010.4
2016-Jul-14 01:33N 22°34' E 120°11'7 7.4
2016-Jul-14 00:33N 22°33' E 120°19'1 1.0
2016-Jul-13 23:29N 22°32' E 120°20'0 0.0
2016-Jul-13 22:17N 22°32' E 120°20'0 0.0
2016-Jul-13 21:23N 22°32' E 120°20'0 0.0
2016-Jul-13 20:17N 22°32' E 120°20'0 0.0
2016-Jul-13 19:29N 22°32' E 120°20'0 0.0
2016-Jul-13 13:32N 22°32' E 120°20'0 0.0
2016-Jul-13 12:32N 22°32' E 120°20'0 0.0
2016-Jul-13 11:32N 22°32' E 120°20'0 0.0
2016-Jul-13 10:32N 22°32' E 120°20'0 0.0
2016-Jul-13 09:32N 22°32' E 120°20'0 0.0
2016-Jul-13 08:32N 22°32' E 120°20'0 0.0
2016-Jul-13 07:26N 22°32' E 120°20'0 0.0
2016-Jul-13 06:32N 22°32' E 120°20'0 0.0
2016-Jul-13 03:26N 22°32' E 120°20'0 0.0
2016-Jul-13 02:32N 22°32' E 120°20'0 0.0
2016-Jul-12 11:23N 22°32' E 120°20'0 0.0
2016-Jul-12 10:11N 22°32' E 120°20'0 0.0
2016-Jul-12 09:23N 22°32' E 120°20'0 0.0
2016-Jul-12 08:17N 22°32' E 120°20'0 0.0
2016-Jul-12 07:29N 22°32' E 120°20'0 0.0
2016-Jul-12 06:29N 22°32' E 120°20'0 0.0
2016-Jul-12 05:29N 22°32' E 120°20'0 0.0
2016-Jul-12 04:29N 22°32' E 120°20'0 0.0
2016-Jul-12 02:16N 22°32' E 120°20'2 2.9
2016-Jul-12 01:30N 22°33' E 120°18'3 3.6
2016-Jul-12 00:32N 22°32' E 120°14'2 1.8
2016-Jul-11 23:32N 22°33' E 120°12'3 2.3
2016-Jul-11 22:23N 22°35' E 120°13'0 0.1
2016-Jul-11 21:23N 22°35' E 120°13'0 0.1
2016-Jul-11 20:23N 22°35' E 120°13'0 0.0
2016-Jul-11 19:29N 22°35' E 120°13'0 0.0
2016-Jul-11 18:29N 22°35' E 120°13'0 0.0
2016-Jul-11 17:11N 22°35' E 120°13'0 0.0
2016-Jul-11 15:29N 22°35' E 120°13'0 0.1
2016-Jul-11 14:29N 22°35' E 120°13'0 0.0
2016-Jul-11 13:29N 22°35' E 120°13'0 0.0
2016-Jul-11 12:29N 22°35' E 120°13'0 0.0
2016-Jul-11 11:29N 22°35' E 120°13'0 0.1
2016-Jul-11 10:23N 22°35' E 120°13'0 0.0
2016-Jul-11 09:29N 22°35' E 120°13'0 0.1
2016-Jul-11 08:29N 22°35' E 120°13'0 0.0
2016-Jul-11 07:29N 22°35' E 120°13'0 0.0
2016-Jul-11 06:29N 22°35' E 120°13'  
Track history (hours):
 
Tides and Currents Weather Stations Pressure Air Temp Water Temp Dewpoint Dewpoint Depression Visibility Wind Speed Wind Dir Waves Ship Positions

Georg Jacob

Last reported at 2016-Jul-21 06:06 UTC. Time now 2016-Jul-30 16:57 UTC.
Position N 01°27' E 103°53'.
Warning: this ship's position is 9 days out of date.

Length 229 m; draft 7.2 m.

Type: Tanker. MMSI: 636092136.

Date/timePositionNaut miles runAvg speedWind from/ knotsBaromVisibWave heightAir tempDewpointWater temp
2016-Jul-21 06:06N 01°27' E 103°53'0 0.6
2016-Jul-21 05:30N 01°27' E 103°52'5 5.5
2016-Jul-21 04:31N 01°24' E 103°57'1010.6
2016-Jul-21 03:33N 01°19' E 104°06'4 0.8
2016-Jul-20 22:23N 01°18' E 104°10'4 5.3
2016-Jul-20 21:33N 01°15' E 104°06'1010.0
2016-Jul-20 20:34N 01°13' E 103°57'3 2.5
2016-Jul-20 19:26N 01°16' E 103°55'0 0.1
2016-Jul-20 18:14N 01°16' E 103°55'0 0.1
2016-Jul-20 17:32N 01°16' E 103°55'0 0.0
2016-Jul-20 16:32N 01°16' E 103°55'0 0.1
2016-Jul-20 15:20N 01°16' E 103°55'0 0.1
2016-Jul-20 14:26N 01°16' E 103°55'0 0.0
2016-Jul-20 13:29N 01°16' E 103°55'0 0.0
2016-Jul-20 12:32N 01°16' E 103°55'0 0.0
2016-Jul-20 11:32N 01°16' E 103°55'0 0.1
2016-Jul-20 10:26N 01°16' E 103°55'0 0.1
2016-Jul-20 09:05N 01°16' E 103°55'0 0.1
2016-Jul-20 08:32N 01°16' E 103°55'0 0.0
2016-Jul-20 07:20N 01°16' E 103°55'0 0.0
2016-Jul-20 06:29N 01°16' E 103°55'0 0.0
2016-Jul-20 05:32N 01°16' E 103°55'0 0.1
2016-Jul-20 04:32N 01°16' E 103°55'0 0.1
2016-Jul-20 03:26N 01°16' E 103°55'0 0.0
2016-Jul-20 02:32N 01°16' E 103°55'0 0.2
2016-Jul-20 01:26N 01°16' E 103°55'0 0.1
2016-Jul-20 00:32N 01°16' E 103°55'1 1.5
2016-Jul-19 23:33N 01°16' E 103°57'4 4.4
2016-Jul-19 22:33N 01°16' E 104°01'9 8.8
2016-Jul-19 21:31N 01°17' E 104°10'  
2016-Jul-14 03:29N 22°28' E 119°51'1010.7
2016-Jul-14 02:33N 22°31' E 120°01'1010.4
2016-Jul-14 01:33N 22°34' E 120°11'7 7.4
2016-Jul-14 00:33N 22°33' E 120°19'1 1.0
2016-Jul-13 23:29N 22°32' E 120°20'0 0.0
2016-Jul-13 22:17N 22°32' E 120°20'0 0.0
2016-Jul-13 21:23N 22°32' E 120°20'0 0.0
2016-Jul-13 20:17N 22°32' E 120°20'0 0.0
2016-Jul-13 19:29N 22°32' E 120°20'0 0.0
2016-Jul-13 13:32N 22°32' E 120°20'0 0.0
2016-Jul-13 12:32N 22°32' E 120°20'0 0.0
2016-Jul-13 11:32N 22°32' E 120°20'0 0.0
2016-Jul-13 10:32N 22°32' E 120°20'0 0.0
2016-Jul-13 09:32N 22°32' E 120°20'0 0.0
2016-Jul-13 08:32N 22°32' E 120°20'0 0.0
2016-Jul-13 07:26N 22°32' E 120°20'0 0.0
2016-Jul-13 06:32N 22°32' E 120°20'0 0.0
2016-Jul-13 03:26N 22°32' E 120°20'0 0.0
2016-Jul-13 02:32N 22°32' E 120°20'0 0.0
2016-Jul-12 11:23N 22°32' E 120°20'0 0.0
2016-Jul-12 10:11N 22°32' E 120°20'0 0.0
2016-Jul-12 09:23N 22°32' E 120°20'0 0.0
2016-Jul-12 08:17N 22°32' E 120°20'0 0.0
2016-Jul-12 07:29N 22°32' E 120°20'0 0.0
2016-Jul-12 06:29N 22°32' E 120°20'0 0.0
2016-Jul-12 05:29N 22°32' E 120°20'0 0.0
2016-Jul-12 04:29N 22°32' E 120°20'0 0.0
2016-Jul-12 02:16N 22°32' E 120°20'2 2.9
2016-Jul-12 01:30N 22°33' E 120°18'3 3.6
2016-Jul-12 00:32N 22°32' E 120°14'2 1.8
2016-Jul-11 23:32N 22°33' E 120°12'3 2.3
2016-Jul-11 22:23N 22°35' E 120°13'0 0.1
2016-Jul-11 21:23N 22°35' E 120°13'0 0.1
2016-Jul-11 20:23N 22°35' E 120°13'0 0.0
2016-Jul-11 19:29N 22°35' E 120°13'0 0.0
2016-Jul-11 18:29N 22°35' E 120°13'0 0.0
2016-Jul-11 17:11N 22°35' E 120°13'0 0.0
2016-Jul-11 15:29N 22°35' E 120°13'0 0.1
2016-Jul-11 14:29N 22°35' E 120°13'0 0.0
2016-Jul-11 13:29N 22°35' E 120°13'0 0.0
2016-Jul-11 12:29N 22°35' E 120°13'0 0.0
2016-Jul-11 11:29N 22°35' E 120°13'0 0.1
2016-Jul-11 10:23N 22°35' E 120°13'0 0.0
2016-Jul-11 09:29N 22°35' E 120°13'0 0.1
2016-Jul-11 08:29N 22°35' E 120°13'0 0.0
2016-Jul-11 07:29N 22°35' E 120°13'0 0.0
2016-Jul-11 06:29N 22°35' E 120°13'  

Dump ship's entire track history